createdAt,value
2018-05-08T00:00:49.803Z,0
2018-05-08T00:01:59.816Z,0
2018-05-08T00:03:09.823Z,0
2018-05-08T00:04:19.844Z,0
2018-05-08T00:05:29.853Z,0
2018-05-08T00:06:39.867Z,0
2018-05-08T00:07:49.611Z,0
2018-05-08T00:08:59.485Z,0
2018-05-08T00:10:09.506Z,0
2018-05-08T00:11:19.246Z,0
2018-05-08T00:12:29.265Z,0
2018-05-08T00:13:39.009Z,0
2018-05-08T00:14:48.752Z,0
2018-05-08T00:15:58.769Z,0
2018-05-08T00:17:08.797Z,0
2018-05-08T00:18:18.553Z,0
2018-05-08T00:19:28.626Z,0
2018-05-08T00:20:38.644Z,0
2018-05-08T00:21:48.655Z,0
2018-05-08T00:22:58.662Z,0
2018-05-08T00:24:08.410Z,0
2018-05-08T00:25:18.150Z,0
2018-05-08T00:26:28.162Z,0
2018-05-08T00:27:37.906Z,0
2018-05-08T00:28:47.913Z,0
2018-05-08T00:29:57.932Z,0
2018-05-08T00:31:07.693Z,0
2018-05-08T00:32:17.438Z,0
2018-05-08T00:33:27.449Z,0
2018-05-08T00:34:37.458Z,0
2018-05-08T00:35:47.208Z,0
2018-05-08T00:36:56.958Z,0
2018-05-08T00:38:06.508Z,0
2018-05-08T00:39:16.530Z,0
2018-05-08T00:40:26.554Z,0
2018-05-08T00:41:36.337Z,0
2018-05-08T00:42:46.425Z,0
2018-05-08T00:43:56.443Z,0
2018-05-08T00:45:05.929Z,0
2018-05-08T00:46:15.940Z,0
2018-05-08T00:47:25.950Z,0
2018-05-08T00:48:35.693Z,0
2018-05-08T00:49:45.441Z,0
2018-05-08T00:50:55.180Z,0
2018-05-08T00:52:05.187Z,0
2018-05-08T00:53:14.658Z,0
2018-05-08T00:54:23.865Z,0
2018-05-08T00:55:33.608Z,0
2018-05-08T00:56:43.353Z,0
2018-05-08T00:57:53.368Z,0
2018-05-08T00:59:03.115Z,0
2018-05-08T01:00:13.128Z,0
2018-05-08T01:01:22.341Z,0
2018-05-08T01:02:32.094Z,0
2018-05-08T01:03:42.115Z,0
2018-05-08T01:04:52.206Z,0
2018-05-08T01:06:01.957Z,0
2018-05-08T01:07:11.709Z,0
2018-05-08T01:08:21.451Z,0
2018-05-08T01:09:30.934Z,0
2018-05-08T01:10:40.949Z,0
2018-05-08T01:11:50.816Z,0
2018-05-08T01:13:00.561Z,0
2018-05-08T01:14:10.303Z,0
2018-05-08T01:15:20.315Z,0
2018-05-08T01:16:30.325Z,0
2018-05-08T01:17:40.422Z,0
2018-05-08T01:18:50.165Z,0
2018-05-08T01:19:59.908Z,0
2018-05-08T01:21:09.655Z,0
2018-05-08T01:22:19.675Z,0
2018-05-08T01:23:29.687Z,0
2018-05-08T01:24:39.701Z,0
2018-05-08T01:25:49.710Z,0
2018-05-08T01:26:59.462Z,0
2018-05-08T01:28:09.027Z,0
2018-05-08T01:29:19.032Z,0
2018-05-08T01:30:29.043Z,0
2018-05-08T01:31:39.382Z,0
2018-05-08T01:32:49.133Z,0
2018-05-08T01:33:58.880Z,0
2018-05-08T01:35:08.891Z,0
2018-05-08T01:36:18.907Z,0
2018-05-08T01:37:28.656Z,0
2018-05-08T01:38:38.136Z,0
2018-05-08T01:39:47.615Z,0
2018-05-08T01:40:57.647Z,0
2018-05-08T01:42:07.118Z,0
2018-05-08T01:43:16.955Z,0
2018-05-08T01:44:26.726Z,0
2018-05-08T01:45:36.469Z,0
2018-05-08T01:46:46.211Z,0
2018-05-08T01:47:56.235Z,0
2018-05-08T01:49:05.981Z,0
2018-05-08T01:50:16.005Z,0
2018-05-08T01:51:26.016Z,0
2018-05-08T01:52:36.039Z,0
2018-05-08T01:53:46.054Z,0
2018-05-08T01:54:55.800Z,0
2018-05-08T01:56:05.554Z,0
2018-05-08T01:57:15.561Z,0
2018-05-08T01:58:25.669Z,0
2018-05-08T01:59:35.674Z,0
2018-05-08T02:00:45.425Z,0
2018-05-08T02:01:55.433Z,0
2018-05-08T02:03:05.179Z,0
2018-05-08T02:04:14.924Z,0
2018-05-08T02:05:24.935Z,0
2018-05-08T02:06:34.951Z,0
2018-05-08T02:07:44.959Z,0
2018-05-08T02:08:54.973Z,0
2018-05-08T02:10:04.982Z,0
2018-05-08T02:11:14.737Z,0
2018-05-08T02:12:24.218Z,0
2018-05-08T02:13:34.223Z,0
2018-05-08T02:14:44.239Z,0
2018-05-08T02:15:53.988Z,0
2018-05-08T02:17:03.744Z,0
2018-05-08T02:18:13.489Z,0
2018-05-08T02:19:23.495Z,0
2018-05-08T02:20:33.869Z,0
2018-05-08T02:21:43.668Z,0
2018-05-08T02:22:53.185Z,0
2018-05-08T02:24:02.705Z,0
2018-05-08T02:25:12.453Z,0
2018-05-08T02:26:22.199Z,0
2018-05-08T02:27:32.053Z,0
2018-05-08T02:28:41.808Z,0
2018-05-08T02:29:51.278Z,0
2018-05-08T02:31:00.765Z,0
2018-05-08T02:32:09.981Z,0
2018-05-08T02:33:19.949Z,0
2018-05-08T02:34:30.011Z,0
2018-05-08T02:35:40.031Z,0
2018-05-08T02:36:49.774Z,0
2018-05-08T02:37:59.790Z,0
2018-05-08T02:39:09.547Z,0
2018-05-08T02:40:19.299Z,0
2018-05-08T02:41:29.318Z,0
2018-05-08T02:42:39.340Z,0
2018-05-08T02:43:48.818Z,0
2018-05-08T02:44:58.297Z,5
2018-05-08T02:46:08.050Z,5
2018-05-08T02:47:17.808Z,5
2018-05-08T02:48:27.841Z,5
2018-05-08T02:49:37.054Z,5
2018-05-08T02:50:46.542Z,5
2018-05-08T02:51:56.290Z,5
2018-05-08T02:53:06.302Z,5
2018-05-08T02:54:15.784Z,5
2018-05-08T02:55:25.550Z,5
2018-05-08T02:56:35.038Z,10
2018-05-08T02:57:44.789Z,10
2018-05-08T02:58:54.278Z,10
2018-05-08T03:00:04.300Z,10
2018-05-08T03:03:46.477Z,15
2018-05-08T03:04:56.228Z,15
2018-05-08T03:06:06.267Z,15
2018-05-08T03:07:16.290Z,15
2018-05-08T03:08:26.307Z,15
2018-05-08T03:09:35.787Z,20
2018-05-08T03:10:45.550Z,20
2018-05-08T03:11:55.572Z,20
2018-05-08T03:13:05.056Z,20
2018-05-08T03:14:14.537Z,25
2018-05-08T03:15:24.286Z,25
2018-05-08T03:16:34.035Z,25
2018-05-08T03:17:43.774Z,25
2018-05-08T03:18:53.520Z,25
2018-05-08T03:20:03.554Z,30
2018-05-08T03:21:13.032Z,30
2018-05-08T03:22:23.266Z,30
2018-05-08T03:23:33.283Z,30
2018-05-08T03:24:42.488Z,35
2018-05-08T03:25:52.494Z,35
2018-05-08T03:27:02.236Z,35
2018-05-08T03:28:11.718Z,40
2018-05-08T03:29:21.745Z,40
2018-05-08T03:30:31.489Z,45
2018-05-08T03:31:40.707Z,45
2018-05-08T03:32:50.786Z,50
2018-05-08T03:34:00.264Z,55
2018-05-08T03:35:10.029Z,55
2018-05-08T03:36:20.039Z,55
2018-05-08T03:37:30.049Z,60
2018-05-08T03:38:40.067Z,60
2018-05-08T03:39:50.084Z,60
2018-05-08T03:40:59.556Z,60
2018-05-08T03:42:09.590Z,60
2018-05-08T03:43:19.610Z,65
2018-05-08T03:44:29.358Z,60
2018-05-08T03:45:39.102Z,65
2018-05-08T03:46:49.140Z,70
2018-05-08T03:47:58.900Z,75
2018-05-08T03:49:08.645Z,75
2018-05-08T03:50:18.650Z,70
2018-05-08T03:51:28.664Z,70
2018-05-08T03:52:38.715Z,75
2018-05-08T03:53:48.723Z,75
2018-05-08T03:54:58.464Z,75
2018-05-08T03:56:08.207Z,80
2018-05-08T03:57:18.321Z,80
2018-05-08T03:58:28.352Z,85
2018-05-08T03:59:38.371Z,85
2018-05-08T04:00:48.381Z,90
2018-05-08T04:01:58.395Z,90
2018-05-08T04:03:08.416Z,90
2018-05-08T04:04:18.423Z,95
2018-05-08T04:05:28.445Z,95
2018-05-08T04:06:38.453Z,95
2018-05-08T04:07:48.197Z,95
2018-05-08T04:08:58.219Z,105
2018-05-08T04:10:07.428Z,105
2018-05-08T04:11:16.908Z,105
2018-05-08T04:12:26.656Z,110
2018-05-08T04:13:36.134Z,115
2018-05-08T04:14:46.142Z,115
2018-05-08T04:15:55.896Z,120
2018-05-08T04:17:05.935Z,115
2018-05-08T04:18:15.944Z,115
2018-05-08T04:19:25.699Z,120
2018-05-08T04:20:35.443Z,125
2018-05-08T04:21:45.454Z,125
2018-05-08T04:22:55.477Z,125
2018-05-08T04:24:05.490Z,130
2018-05-08T04:25:15.281Z,130
2018-05-08T04:26:24.753Z,135
2018-05-08T04:27:34.841Z,135
2018-05-08T04:28:44.870Z,140
2018-05-08T04:29:54.880Z,145
2018-05-08T04:31:04.899Z,150
2018-05-08T04:32:14.913Z,150
2018-05-08T04:33:24.926Z,150
2018-05-08T04:34:35.067Z,150
2018-05-08T04:35:45.072Z,140
2018-05-08T04:36:54.822Z,135
2018-05-08T04:38:04.306Z,135
2018-05-08T04:39:13.780Z,135
2018-05-08T04:40:23.798Z,135
2018-05-08T04:41:33.812Z,135
2018-05-08T04:42:43.555Z,140
2018-05-08T04:43:53.302Z,140
2018-05-08T04:45:03.049Z,140
2018-05-08T04:46:13.062Z,145
2018-05-08T04:47:23.227Z,145
2018-05-08T04:48:32.979Z,145
2018-05-08T04:49:42.997Z,150
2018-05-08T04:50:52.739Z,150
2018-05-08T04:52:02.763Z,150
2018-05-08T04:53:12.238Z,150
2018-05-08T04:54:21.988Z,150
2018-05-08T04:55:31.996Z,150
2018-05-08T04:56:42.011Z,155
2018-05-08T04:57:51.786Z,160
2018-05-08T04:59:01.525Z,165
2018-05-08T05:00:11.006Z,170
2018-05-08T05:01:21.025Z,160
2018-05-08T05:02:31.041Z,160
2018-05-08T05:03:41.051Z,170
2018-05-08T05:04:51.071Z,170
2018-05-08T05:06:01.083Z,170
2018-05-08T05:07:10.804Z,170
2018-05-08T05:08:20.812Z,175
2018-05-08T05:09:29.812Z,190
2018-05-08T05:10:39.826Z,200
2018-05-08T05:11:49.568Z,210
2018-05-08T05:12:59.310Z,205
2018-05-08T05:14:08.842Z,185
2018-05-08T05:15:18.318Z,170
2018-05-08T05:16:28.337Z,160
2018-05-08T05:17:38.352Z,165
2018-05-08T05:18:47.839Z,175
2018-05-08T05:19:57.584Z,160
2018-05-08T05:21:07.338Z,160
2018-05-08T05:22:17.086Z,170
2018-05-08T05:23:27.201Z,165
2018-05-08T05:24:37.578Z,180
2018-05-08T05:25:47.057Z,185
2018-05-08T05:26:57.067Z,180
2018-05-08T05:28:06.280Z,185
2018-05-08T05:29:16.398Z,180
2018-05-08T05:30:26.151Z,175
2018-05-08T05:31:35.973Z,170
2018-05-08T05:32:45.114Z,160
2018-05-08T05:33:55.128Z,170
2018-05-08T05:35:04.870Z,165
2018-05-08T05:36:14.880Z,170
2018-05-08T05:37:24.356Z,190
2018-05-08T05:38:33.572Z,210
2018-05-08T05:39:43.598Z,215
2018-05-08T05:40:53.398Z,220
2018-05-08T05:42:03.152Z,220
2018-05-08T05:43:12.633Z,210
2018-05-08T05:44:22.404Z,205
2018-05-08T05:45:32.145Z,200
2018-05-08T05:46:42.159Z,190
2018-05-08T05:47:51.904Z,215
2018-05-08T05:49:01.641Z,250
2018-05-08T05:50:11.431Z,250
2018-05-08T05:51:21.179Z,250
2018-05-08T05:52:31.202Z,245
2018-05-08T05:53:41.299Z,215
2018-05-08T05:54:51.319Z,210
2018-05-08T05:56:01.333Z,215
2018-05-08T05:57:10.542Z,215
2018-05-08T05:58:20.563Z,215
2018-05-08T05:59:30.579Z,230
2018-05-08T06:00:40.587Z,225
2018-05-08T06:01:50.597Z,225
2018-05-08T06:03:00.427Z,220
2018-05-08T06:04:10.439Z,215
2018-05-08T06:05:20.463Z,225
2018-05-08T06:06:30.547Z,240
2018-05-08T06:07:40.321Z,255
2018-05-08T06:08:49.529Z,290
2018-05-08T06:09:59.543Z,305
2018-05-08T06:11:09.558Z,285
2018-05-08T06:12:19.588Z,265
2018-05-08T06:13:29.334Z,240
2018-05-08T06:14:39.073Z,225
2018-05-08T06:15:48.820Z,225
2018-05-08T06:16:58.838Z,230
2018-05-08T06:18:08.584Z,225
2018-05-08T06:19:18.599Z,230
2018-05-08T06:20:28.668Z,225
2018-05-08T06:21:38.223Z,220
2018-05-08T06:22:48.232Z,235
2018-05-08T06:23:58.247Z,245
2018-05-08T06:25:08.006Z,255
2018-05-08T06:26:17.757Z,235
2018-05-08T06:27:27.291Z,240
2018-05-08T06:28:36.689Z,235
2018-05-08T06:29:46.517Z,240
2018-05-08T06:30:56.529Z,240
2018-05-08T06:32:06.037Z,255
2018-05-08T06:33:16.115Z,255
2018-05-08T06:34:26.455Z,240
2018-05-08T06:35:35.986Z,245
2018-05-08T06:36:46.000Z,260
2018-05-08T06:37:56.019Z,250
2018-05-08T06:39:06.160Z,260
2018-05-08T06:40:16.156Z,255
2018-05-08T06:41:25.899Z,245
2018-05-08T06:42:35.375Z,250
2018-05-08T06:43:45.385Z,255
2018-05-08T06:44:55.275Z,260
2018-05-08T06:46:04.748Z,265
2018-05-08T06:47:14.783Z,280
2018-05-08T06:48:24.540Z,290
2018-05-08T06:49:34.564Z,300
2018-05-08T06:50:44.687Z,305
2018-05-08T06:51:54.445Z,300
2018-05-08T06:53:04.454Z,305
2018-05-08T06:54:14.472Z,305
2018-05-08T06:55:24.315Z,305
2018-05-08T06:56:34.057Z,300
2018-05-08T06:57:44.084Z,295
2018-05-08T06:58:53.561Z,285
2018-05-08T07:00:03.314Z,280
2018-05-08T07:01:13.328Z,280
2018-05-08T07:02:23.360Z,270
2018-05-08T07:03:32.836Z,280
2018-05-08T07:04:42.855Z,275
2018-05-08T07:05:52.881Z,265
2018-05-08T07:07:02.901Z,265
2018-05-08T07:08:12.652Z,275
2018-05-08T07:09:22.148Z,275
2018-05-08T07:10:32.163Z,275
2018-05-08T07:11:41.911Z,265
2018-05-08T07:12:51.926Z,270
2018-05-08T07:14:01.687Z,280
2018-05-08T07:15:11.243Z,290
2018-05-08T07:16:21.482Z,300
2018-05-08T07:17:31.503Z,300
2018-05-08T07:18:41.573Z,310
2018-05-08T07:19:51.323Z,315
2018-05-08T07:21:01.076Z,320
2018-05-08T07:22:10.821Z,320
2018-05-08T07:23:20.304Z,315
2018-05-08T07:24:30.320Z,320
2018-05-08T07:25:40.064Z,315
2018-05-08T07:26:49.548Z,335
2018-05-08T07:27:59.291Z,335
2018-05-08T07:29:08.785Z,345
2018-05-08T07:30:18.886Z,345
2018-05-08T07:31:28.642Z,330
2018-05-08T07:32:38.392Z,350
2018-05-08T07:33:48.408Z,360
2018-05-08T07:34:57.896Z,345
2018-05-08T07:36:08.161Z,345
2018-05-08T07:37:17.480Z,340
2018-05-08T07:38:27.550Z,335
2018-05-08T07:39:37.645Z,325
2018-05-08T07:40:47.654Z,315
2018-05-08T07:41:57.675Z,295
2018-05-08T07:43:07.465Z,280
2018-05-08T07:44:17.221Z,285
2018-05-08T07:45:27.404Z,285
2018-05-08T07:46:37.430Z,275
2018-05-08T07:47:47.179Z,280
2018-05-08T07:48:56.926Z,280
2018-05-08T07:50:06.941Z,280
2018-05-08T07:51:16.961Z,275
2018-05-08T07:52:26.971Z,285
2018-05-08T07:53:36.981Z,295
2018-05-08T07:54:47.044Z,300
2018-05-08T07:55:57.056Z,300
2018-05-08T07:57:06.806Z,300
2018-05-08T07:58:16.816Z,305
2018-05-08T07:59:26.834Z,305
2018-05-08T08:00:36.861Z,295
2018-05-08T08:01:46.612Z,295
2018-05-08T08:02:56.626Z,305
2018-05-08T08:04:06.489Z,310
2018-05-08T08:05:16.243Z,305
2018-05-08T08:06:26.268Z,295
2018-05-08T08:07:36.343Z,295
2018-05-08T08:08:46.179Z,300
2018-05-08T08:09:55.674Z,300
2018-05-08T08:11:05.424Z,295
2018-05-08T08:12:14.908Z,270
2018-05-08T08:13:24.113Z,250
2018-05-08T08:14:33.860Z,260
2018-05-08T08:15:43.609Z,270
2018-05-08T08:16:52.817Z,285
2018-05-08T08:18:02.592Z,280
2018-05-08T08:19:12.345Z,290
2018-05-08T08:20:22.365Z,310
2018-05-08T08:21:31.850Z,305
2018-05-08T08:22:41.871Z,295
2018-05-08T08:23:51.727Z,290
2018-05-08T08:25:01.515Z,285
2018-05-08T08:26:11.000Z,300
2018-05-08T08:27:21.020Z,305
2018-05-08T08:28:30.772Z,330
2018-05-08T08:29:40.774Z,315
2018-05-08T08:30:50.821Z,310
2018-05-08T08:32:00.846Z,305
2018-05-08T08:33:10.324Z,305
2018-05-08T08:34:19.819Z,290
2018-05-08T08:35:29.937Z,285
2018-05-08T08:36:39.961Z,275
2018-05-08T08:37:49.705Z,275
2018-05-08T08:38:59.718Z,280
2018-05-08T08:40:09.464Z,290
2018-05-08T08:41:19.489Z,295
2018-05-08T08:42:29.610Z,305
2018-05-08T08:43:39.359Z,325
2018-05-08T08:44:48.840Z,345
2018-05-08T08:45:58.327Z,350
2018-05-08T08:47:07.804Z,350
2018-05-08T08:48:17.818Z,340
2018-05-08T08:49:27.301Z,355
2018-05-08T08:50:37.323Z,325
2018-05-08T08:51:47.087Z,355
2018-05-08T08:52:56.844Z,350
2018-05-08T08:54:06.866Z,365
2018-05-08T08:55:16.906Z,365
2018-05-08T08:56:26.927Z,370
2018-05-08T08:57:36.679Z,370
2018-05-08T08:58:46.158Z,370
2018-05-08T08:59:55.911Z,375
2018-05-08T09:01:05.926Z,380
2018-05-08T09:02:15.673Z,385
2018-05-08T09:03:25.693Z,385
2018-05-08T09:04:35.448Z,385
2018-05-08T09:05:45.206Z,385
2018-05-08T09:06:54.154Z,380
2018-05-08T09:08:03.920Z,370
2018-05-08T09:09:13.414Z,370
2018-05-08T09:10:23.554Z,350
2018-05-08T09:11:33.573Z,340
2018-05-08T09:12:42.786Z,330
2018-05-08T09:13:52.541Z,330
2018-05-08T09:15:02.560Z,325
2018-05-08T09:16:12.311Z,325
2018-05-08T09:17:22.328Z,325
2018-05-08T09:18:32.076Z,325
2018-05-08T09:19:41.840Z,325
2018-05-08T09:20:51.325Z,330
2018-05-08T09:22:01.348Z,335
2018-05-08T09:23:11.365Z,330
2018-05-08T09:24:21.118Z,330
2018-05-08T09:25:30.891Z,330
2018-05-08T09:26:40.640Z,330
2018-05-08T09:27:50.823Z,335
2018-05-08T09:29:00.572Z,335
2018-05-08T09:30:10.317Z,340
2018-05-08T09:31:20.337Z,340
2018-05-08T09:32:29.821Z,345
2018-05-08T09:33:39.836Z,350
2018-05-08T09:34:49.583Z,350
2018-05-08T09:35:59.601Z,360
2018-05-08T09:37:09.627Z,355
2018-05-08T09:38:19.649Z,355
2018-05-08T09:39:29.398Z,360
2018-05-08T09:40:39.417Z,365
2018-05-08T09:41:49.163Z,365
2018-05-08T09:42:58.669Z,370
2018-05-08T09:44:08.697Z,375
2018-05-08T09:45:18.831Z,375
2018-05-08T09:46:28.600Z,375
2018-05-08T09:47:38.363Z,380
2018-05-08T09:48:48.456Z,380
2018-05-08T09:49:58.564Z,385
2018-05-08T09:51:08.587Z,390
2018-05-08T09:52:17.814Z,395
2018-05-08T09:53:27.571Z,400
2018-05-08T09:54:37.610Z,385
2018-05-08T09:55:47.369Z,370
2018-05-08T09:56:57.395Z,360
2018-05-08T09:58:07.428Z,380
2018-05-08T09:59:17.176Z,380
2018-05-08T10:00:26.926Z,385
2018-05-08T10:01:36.948Z,375
2018-05-08T10:02:46.761Z,380
2018-05-08T10:03:56.246Z,380
2018-05-08T10:05:06.267Z,385
2018-05-08T10:06:16.290Z,385
2018-05-08T10:07:25.771Z,380
2018-05-08T10:08:35.524Z,405
2018-05-08T10:09:45.009Z,405
2018-05-08T10:10:54.766Z,420
2018-05-08T10:12:04.530Z,410
2018-05-08T10:13:14.286Z,415
2018-05-08T10:14:23.771Z,425
2018-05-08T10:15:33.792Z,410
2018-05-08T10:16:43.810Z,425
2018-05-08T10:17:53.295Z,415
2018-05-08T10:19:03.344Z,425
2018-05-08T10:20:13.091Z,425
2018-05-08T10:21:23.118Z,425
2018-05-08T10:22:33.134Z,420
2018-05-08T10:23:42.900Z,420
2018-05-08T10:24:52.651Z,425
2018-05-08T10:26:02.684Z,420
2018-05-08T10:27:12.712Z,420
2018-05-08T10:28:22.735Z,425
2018-05-08T10:29:32.792Z,425
2018-05-08T10:30:42.632Z,425
2018-05-08T10:31:52.126Z,420
2018-05-08T10:33:02.377Z,420
2018-05-08T10:34:12.139Z,420
2018-05-08T10:35:21.897Z,420
2018-05-08T10:36:31.651Z,420
2018-05-08T10:37:41.821Z,425
2018-05-08T10:38:51.583Z,425
2018-05-08T10:40:01.606Z,425
2018-05-08T10:41:11.360Z,430
2018-05-08T10:42:21.403Z,430
2018-05-08T10:43:31.440Z,435
2018-05-08T10:44:41.456Z,435
2018-05-08T10:45:51.208Z,445
2018-05-08T10:47:01.234Z,445
2018-05-08T10:48:10.988Z,450
2018-05-08T10:49:21.004Z,455
2018-05-08T10:50:30.771Z,450
2018-05-08T10:51:40.261Z,455
2018-05-08T10:52:50.015Z,455
2018-05-08T10:53:59.771Z,455
2018-05-08T10:55:09.643Z,460
2018-05-08T10:56:19.661Z,455
2018-05-08T10:57:29.419Z,460
2018-05-08T10:58:39.203Z,460
2018-05-08T10:59:48.965Z,460
2018-05-08T11:00:58.993Z,460
2018-05-08T11:02:08.743Z,465
2018-05-08T11:03:18.493Z,465
2018-05-08T11:04:28.250Z,465
2018-05-08T11:05:38.264Z,460
2018-05-08T11:06:47.759Z,470
2018-05-08T11:07:57.859Z,475
2018-05-08T11:09:07.675Z,470
2018-05-08T11:10:17.430Z,475
2018-05-08T11:11:27.457Z,480
2018-05-08T11:12:37.722Z,485
2018-05-08T11:13:47.739Z,490
2018-05-08T11:14:57.492Z,495
2018-05-08T11:16:07.253Z,495
2018-05-08T11:17:16.738Z,505
2018-05-08T11:18:26.770Z,515
2018-05-08T11:19:36.865Z,525
2018-05-08T11:20:46.089Z,535
2018-05-08T11:21:56.125Z,560
2018-05-08T11:23:06.149Z,685
2018-05-08T11:24:15.630Z,1400
2018-05-08T11:25:25.655Z,1785
2018-05-08T11:26:35.726Z,2055
2018-05-08T11:27:45.862Z,2080
2018-05-08T11:28:55.884Z,2210
2018-05-08T11:30:05.907Z,2295
2018-05-08T11:31:15.124Z,2375
2018-05-08T11:32:24.615Z,2370
2018-05-08T11:33:34.639Z,2155
2018-05-08T11:34:44.395Z,2125
2018-05-08T11:35:54.424Z,2095
2018-05-08T11:37:04.185Z,2275
2018-05-08T11:38:13.427Z,2275
2018-05-08T11:39:23.897Z,2290
2018-05-08T11:40:33.403Z,2170
2018-05-08T11:41:42.895Z,2315
2018-05-08T11:42:52.967Z,2325
2018-05-08T11:44:02.465Z,2370
2018-05-08T11:45:12.233Z,2275
2018-05-08T11:46:21.727Z,2275
2018-05-08T11:47:31.484Z,2230
2018-05-08T11:48:41.246Z,2180
2018-05-08T11:49:51.012Z,2260
2018-05-08T11:51:00.580Z,2275
2018-05-08T11:52:10.340Z,2310
2018-05-08T11:53:20.468Z,2250
2018-05-08T11:54:30.504Z,2115
2018-05-08T11:55:40.274Z,1830
2018-05-08T11:56:50.050Z,2005
2018-05-08T11:58:00.105Z,1655
2018-05-08T11:59:10.141Z,1595
2018-05-08T12:00:19.637Z,1770
2018-05-08T12:01:29.405Z,2260
2018-05-08T12:02:39.004Z,2275
2018-05-08T12:03:49.160Z,1860
2018-05-08T12:04:59.192Z,2450
2018-05-08T12:06:09.009Z,2400
2018-05-08T12:07:19.132Z,2340
2018-05-08T12:08:29.168Z,2255
2018-05-08T12:09:39.202Z,2205
2018-05-08T12:10:49.286Z,2210
2018-05-08T12:11:59.318Z,2225
2018-05-08T12:13:08.821Z,2275
2018-05-08T12:14:18.855Z,2375
2018-05-08T12:15:28.359Z,2410
2018-05-08T12:16:38.126Z,2410
2018-05-08T12:17:48.189Z,2425
2018-05-08T12:18:58.221Z,2420
2018-05-08T12:20:08.277Z,2385
2018-05-08T12:21:18.323Z,2425
2018-05-08T12:22:27.827Z,2425
2018-05-08T12:23:37.333Z,2530
2018-05-08T12:24:46.828Z,2515
2018-05-08T12:25:56.601Z,2475
2018-05-08T12:27:06.374Z,2710
2018-05-08T12:28:16.140Z,2820
2018-05-08T12:29:25.910Z,2495
2018-05-08T12:30:35.787Z,2530
2018-05-08T12:31:45.575Z,2535
2018-05-08T12:32:55.613Z,2495
2018-05-08T12:34:05.655Z,2425
2018-05-08T12:35:15.425Z,2485
2018-05-08T12:36:24.657Z,2390
2018-05-08T12:37:34.425Z,2455
2018-05-08T12:38:44.188Z,2390
2018-05-08T12:39:53.963Z,2330
2018-05-08T12:41:03.738Z,2260
2018-05-08T12:42:14.146Z,2090
2018-05-08T12:43:24.199Z,1995
2018-05-08T12:44:34.236Z,1840
2018-05-08T12:45:44.300Z,1835
2018-05-08T12:46:53.525Z,1715
2018-05-08T12:48:03.302Z,1545
2018-05-08T12:49:13.339Z,1730
2018-05-08T12:50:23.465Z,1445
2018-05-08T12:51:33.511Z,1785
2018-05-08T12:52:43.294Z,1925
2018-05-08T12:53:53.066Z,2150
2018-05-08T12:55:02.901Z,2225
2018-05-08T12:56:12.332Z,2150
2018-05-08T12:57:22.077Z,2165
2018-05-08T12:58:32.120Z,2200
2018-05-08T12:59:42.171Z,2080
2018-05-08T13:00:51.673Z,2060
2018-05-08T13:02:01.172Z,2065
2018-05-08T13:03:11.332Z,2250
2018-05-08T13:04:21.093Z,2600
2018-05-08T13:05:31.112Z,2355
2018-05-08T13:06:40.886Z,2135
2018-05-08T13:07:50.919Z,2050
2018-05-08T13:09:00.426Z,2270
2018-05-08T13:10:10.471Z,2320
2018-05-08T13:11:20.239Z,2190
2018-05-08T13:12:30.076Z,1730
2018-05-08T13:13:40.105Z,1770
2018-05-08T13:14:49.866Z,1705
2018-05-08T13:15:59.894Z,1790
2018-05-08T13:17:09.386Z,2010
2018-05-08T13:18:19.625Z,1765
2018-05-08T13:19:28.944Z,1640
2018-05-08T13:20:38.977Z,1530
2018-05-08T13:21:48.738Z,1470
2018-05-08T13:22:58.775Z,1370
2018-05-08T13:24:08.353Z,1445
2018-05-08T13:25:18.049Z,1565
2018-05-08T13:26:28.086Z,1480
2018-05-08T13:27:37.579Z,1500
2018-05-08T13:28:47.337Z,1520
2018-05-08T13:29:57.108Z,1580
2018-05-08T13:31:06.438Z,1555
2018-05-08T13:32:16.204Z,1710
2018-05-08T13:33:25.966Z,1860
2018-05-08T13:34:36.002Z,2235
2018-05-08T13:35:45.764Z,2535
2018-05-08T13:36:55.883Z,2775
2018-05-08T13:38:05.645Z,2935
2018-05-08T13:39:15.799Z,2930
2018-05-08T13:40:25.568Z,2860
2018-05-08T13:41:35.056Z,2515
2018-05-08T13:42:44.020Z,2510
2018-05-08T13:43:53.806Z,2515
2018-05-08T13:45:03.839Z,2155
2018-05-08T13:46:13.069Z,2050
2018-05-08T13:47:22.560Z,1930
2018-05-08T13:48:32.600Z,2025
2018-05-08T13:49:42.375Z,2240
2018-05-08T13:50:52.133Z,2200
2018-05-08T13:52:01.623Z,2500
2018-05-08T13:53:10.846Z,2610
2018-05-08T13:54:20.599Z,2920
2018-05-08T13:55:30.631Z,3000
2018-05-08T13:56:40.210Z,3025
2018-05-08T13:57:49.965Z,3015
2018-05-08T13:58:59.993Z,2895
2018-05-08T14:00:09.755Z,2970
2018-05-08T14:01:19.516Z,2895
2018-05-08T14:02:29.556Z,2345
2018-05-08T14:03:39.047Z,2180
2018-05-08T14:04:49.079Z,1990
2018-05-08T14:05:58.845Z,2400
2018-05-08T14:07:08.522Z,2360
2018-05-08T14:08:18.560Z,2040
2018-05-08T14:09:28.585Z,2200
2018-05-08T14:10:38.626Z,2200
2018-05-08T14:11:48.390Z,2315
2018-05-08T14:12:57.946Z,2310
2018-05-08T14:14:07.181Z,2040
2018-05-08T14:15:17.267Z,2050
2018-05-08T14:16:26.764Z,1960
2018-05-08T14:17:36.529Z,2000
2018-05-08T14:18:46.652Z,2090
2018-05-08T14:19:56.409Z,2135
2018-05-08T14:21:06.171Z,2205
2018-05-08T14:22:16.205Z,2450
2018-05-08T14:23:25.980Z,2525
2018-05-08T14:24:35.739Z,2555
2018-05-08T14:25:45.764Z,2480
2018-05-08T14:26:55.793Z,2510
2018-05-08T14:28:05.825Z,2555
2018-05-08T14:29:15.318Z,2495
2018-05-08T14:30:24.869Z,2405
2018-05-08T14:31:35.252Z,2500
2018-05-08T14:32:45.131Z,2435
2018-05-08T14:33:55.171Z,2545
2018-05-08T14:35:04.931Z,2680
2018-05-08T14:36:14.966Z,2750
2018-05-08T14:37:25.007Z,2835
2018-05-08T14:38:35.162Z,2895
2018-05-08T14:39:45.226Z,2885
2018-05-08T14:40:55.068Z,2895
2018-05-08T14:42:04.828Z,2685
2018-05-08T14:43:14.855Z,2990
2018-05-08T14:44:24.623Z,2955
2018-05-08T14:45:34.113Z,2965
2018-05-08T14:46:43.882Z,2855
2018-05-08T14:47:53.915Z,2750
2018-05-08T14:49:03.414Z,2905
2018-05-08T14:50:13.447Z,2980
2018-05-08T14:51:23.479Z,2975
2018-05-08T14:52:33.235Z,2950
2018-05-08T14:53:42.994Z,2760
2018-05-08T14:54:53.033Z,2950
2018-05-08T14:56:02.795Z,2685
2018-05-08T14:57:12.576Z,2885
2018-05-08T14:58:22.068Z,2695
2018-05-08T14:59:31.850Z,2815
2018-05-08T15:00:41.612Z,2950
2018-05-08T15:01:51.114Z,2745
2018-05-08T15:03:01.155Z,2760
2018-05-08T15:04:10.987Z,2595
2018-05-08T15:05:20.769Z,2555
2018-05-08T15:06:30.793Z,2820
2018-05-08T15:07:40.825Z,2900
2018-05-08T15:08:50.851Z,2890
2018-05-08T15:10:00.880Z,2365
2018-05-08T15:11:10.643Z,1775
2018-05-08T15:12:20.667Z,2385
2018-05-08T15:13:30.702Z,2350
2018-05-08T15:14:40.732Z,2220
2018-05-08T15:15:50.225Z,1930
2018-05-08T15:16:59.719Z,2725
2018-05-08T15:18:09.483Z,2720
2018-05-08T15:19:19.252Z,2750
2018-05-08T15:20:29.016Z,2815
2018-05-08T15:21:38.770Z,2800
2018-05-08T15:22:48.798Z,2890
2018-05-08T15:23:58.834Z,2875
2018-05-08T15:25:08.057Z,2695
2018-05-08T15:26:18.084Z,2520
2018-05-08T15:27:27.852Z,2435
2018-05-08T15:28:37.883Z,2350
2018-05-08T15:29:47.642Z,2510
2018-05-08T15:30:57.666Z,2540
2018-05-08T15:32:07.173Z,2405
2018-05-08T15:33:16.935Z,2035
2018-05-08T15:34:26.724Z,1805
2018-05-08T15:35:36.217Z,1660
2018-05-08T15:36:45.976Z,1685
2018-05-08T15:37:55.748Z,1830
2018-05-08T15:39:05.777Z,2255
2018-05-08T15:40:15.810Z,2510
2018-05-08T15:41:25.843Z,2415
2018-05-08T15:42:35.876Z,2095
2018-05-08T15:43:45.914Z,1845
2018-05-08T15:44:55.401Z,1410
2018-05-08T15:46:05.175Z,1145
2018-05-08T15:47:15.315Z,1120
2018-05-08T15:48:25.095Z,1210
2018-05-08T15:49:34.316Z,1165
2018-05-08T15:50:44.351Z,1265
2018-05-08T15:51:54.477Z,1155
2018-05-08T15:53:04.232Z,940
2018-05-08T15:54:13.726Z,740
2018-05-08T15:55:23.908Z,540
2018-05-08T15:56:33.929Z,535
2018-05-08T15:57:43.686Z,475
2018-05-08T15:58:53.711Z,555
2018-05-08T16:00:03.198Z,640
2018-05-08T16:01:13.530Z,595
2018-05-08T16:02:23.595Z,465
2018-05-08T16:03:33.351Z,440
2018-05-08T16:04:42.582Z,405
2018-05-08T16:05:52.346Z,385
2018-05-08T16:07:02.106Z,580
2018-05-08T16:08:11.872Z,585
2018-05-08T16:09:21.896Z,535